Avalon Express — WDD7919 — position and weather

sailwx.info

Track history (hours):
 
Tides and Currents Weather Stations Pressure Air Temp Water Temp Dewpoint Dewpoint Depression Visibility Wind Speed Wind Dir Waves Ship Positions

Avalon Express

Owner: RGWT INC, San Pedro, CA. More information available from US FCC via Universal Licensing System and Coast Guard Vessel Documentation Center.

Last reported at 2015-May-18 23:06 UTC. Time now 2015-May-22 16:08 UTC.
Position N 33°45' W 118°16'.

Type: High speed craft. MMSI: 367192940.

Date/timePositionNaut miles runAvg speedWind from/ knotsBaromVisibWave heightAir tempDewpointWater temp
2015-May-18 23:06N 33°45' W 118°16'0 0.1
2015-May-18 22:33N 33°45' W 118°16'2 1.4
2015-May-18 21:27N 33°43' W 118°16'23 1.1
2015-May-18 00:13N 33°21' W 118°19'2414.7
2015-May-17 22:33N 33°45' W 118°16'0 0.0
2015-May-17 21:33N 33°45' W 118°16'1 1.4
2015-May-17 20:33N 33°44' W 118°16'2 0.9
2015-May-17 18:05N 33°42' W 118°15'4 6.6
2015-May-17 17:33N 33°45' W 118°16'23 1.7
2015-May-17 04:05N 33°22' W 118°19'1 1.0
2015-May-17 03:32N 33°21' W 118°19'2411.9
2015-May-17 01:30N 33°45' W 118°16'2319.8
2015-May-17 00:22N 33°22' W 118°19'2312.4
2015-May-16 22:32N 33°45' W 118°16'0 0.1
2015-May-16 21:33N 33°45' W 118°16'1 1.3
2015-May-16 20:32N 33°44' W 118°16'1 0.6
2015-May-16 18:04N 33°43' W 118°15'3 4.3
2015-May-16 17:28N 33°45' W 118°16'2412.1
2015-May-16 15:27N 33°21' W 118°19'2420.2
2015-May-16 14:15N 33°45' W 118°16'0 0.0
2015-May-16 13:33N 33°45' W 118°16'21 2.3
2015-May-16 04:28N 33°24' W 118°19'21 7.3
2015-May-16 01:33N 33°45' W 118°16'2418.7
2015-May-16 00:15N 33°21' W 118°19'2414.1
2015-May-15 22:33N 33°45' W 118°17'0 0.4
2015-May-15 21:32N 33°45' W 118°16'0 0.0
2015-May-15 20:28N 33°45' W 118°16'0 0.0
2015-May-15 19:33N 33°45' W 118°16'0 0.0
2015-May-15 18:32N 33°45' W 118°16'0 0.0
2015-May-15 17:33N 33°45' W 118°16'0 0.0
2015-May-15 16:33N 33°45' W 118°16'  
2015-May-10 23:18N 33°45' W 118°16'1516.3
2015-May-10 22:24N 33°30' W 118°17'1011.5
2015-May-10 21:34N 33°21' W 118°19'24 1.6
2015-May-10 06:10N 33°45' W 118°16'0 0.0
2015-May-10 05:08N 33°45' W 118°16'2412.9
2015-May-10 03:16N 33°21' W 118°19'24 5.0
2015-May-09 22:32N 33°45' W 118°17'0 0.3
2015-May-09 21:33N 33°45' W 118°16'2 1.8
2015-May-09 20:33N 33°43' W 118°16'2 0.6
2015-May-09 17:33N 33°45' W 118°16'2411.2
2015-May-09 15:25N 33°21' W 118°19'2421.1
2015-May-09 14:17N 33°45' W 118°17'0 0.5
2015-May-09 13:33N 33°45' W 118°16'0 0.0
2015-May-09 12:33N 33°45' W 118°16'  
Track history (hours):
 
Tides and Currents Weather Stations Pressure Air Temp Water Temp Dewpoint Dewpoint Depression Visibility Wind Speed Wind Dir Waves Ship Positions

Avalon Express

Owner: RGWT INC, San Pedro, CA. More information available from US FCC via Universal Licensing System and Coast Guard Vessel Documentation Center.

Last reported at 2015-May-18 23:06 UTC. Time now 2015-May-22 16:08 UTC.
Position N 33°45' W 118°16'.

Type: High speed craft. MMSI: 367192940.

Date/timePositionNaut miles runAvg speedWind from/ knotsBaromVisibWave heightAir tempDewpointWater temp
2015-May-18 23:06N 33°45' W 118°16'0 0.1
2015-May-18 22:33N 33°45' W 118°16'2 1.4
2015-May-18 21:27N 33°43' W 118°16'23 1.1
2015-May-18 00:13N 33°21' W 118°19'2414.7
2015-May-17 22:33N 33°45' W 118°16'0 0.0
2015-May-17 21:33N 33°45' W 118°16'1 1.4
2015-May-17 20:33N 33°44' W 118°16'2 0.9
2015-May-17 18:05N 33°42' W 118°15'4 6.6
2015-May-17 17:33N 33°45' W 118°16'23 1.7
2015-May-17 04:05N 33°22' W 118°19'1 1.0
2015-May-17 03:32N 33°21' W 118°19'2411.9
2015-May-17 01:30N 33°45' W 118°16'2319.8
2015-May-17 00:22N 33°22' W 118°19'2312.4
2015-May-16 22:32N 33°45' W 118°16'0 0.1
2015-May-16 21:33N 33°45' W 118°16'1 1.3
2015-May-16 20:32N 33°44' W 118°16'1 0.6
2015-May-16 18:04N 33°43' W 118°15'3 4.3
2015-May-16 17:28N 33°45' W 118°16'2412.1
2015-May-16 15:27N 33°21' W 118°19'2420.2
2015-May-16 14:15N 33°45' W 118°16'0 0.0
2015-May-16 13:33N 33°45' W 118°16'21 2.3
2015-May-16 04:28N 33°24' W 118°19'21 7.3
2015-May-16 01:33N 33°45' W 118°16'2418.7
2015-May-16 00:15N 33°21' W 118°19'2414.1
2015-May-15 22:33N 33°45' W 118°17'0 0.4
2015-May-15 21:32N 33°45' W 118°16'0 0.0
2015-May-15 20:28N 33°45' W 118°16'0 0.0
2015-May-15 19:33N 33°45' W 118°16'0 0.0
2015-May-15 18:32N 33°45' W 118°16'0 0.0
2015-May-15 17:33N 33°45' W 118°16'0 0.0
2015-May-15 16:33N 33°45' W 118°16'  
2015-May-10 23:18N 33°45' W 118°16'1516.3
2015-May-10 22:24N 33°30' W 118°17'1011.5
2015-May-10 21:34N 33°21' W 118°19'24 1.6
2015-May-10 06:10N 33°45' W 118°16'0 0.0
2015-May-10 05:08N 33°45' W 118°16'2412.9
2015-May-10 03:16N 33°21' W 118°19'24 5.0
2015-May-09 22:32N 33°45' W 118°17'0 0.3
2015-May-09 21:33N 33°45' W 118°16'2 1.8
2015-May-09 20:33N 33°43' W 118°16'2 0.6
2015-May-09 17:33N 33°45' W 118°16'2411.2
2015-May-09 15:25N 33°21' W 118°19'2421.1
2015-May-09 14:17N 33°45' W 118°17'0 0.5
2015-May-09 13:33N 33°45' W 118°16'0 0.0
2015-May-09 12:33N 33°45' W 118°16'  

Dump ship's entire track history